This is the latest recevied weather packets stored in our database for station/object DG6HD-13. If no packets are shown the sender has not sent any weather packets the latest 10 day(s).
| Time | Temp. | Humidity | Pressure | Rain* | Wind** | Luminosity | Snow |
|---|---|---|---|---|---|---|---|
| 1778318322 | 15.56° C | 45% | 1022.5 hPa | - | - | - | - |
| 1778317421 | 15.56° C | 45% | 1022.6 hPa | - | - | - | - |
| 1778316520 | 15° C | 46% | 1022.7 hPa | - | - | - | - |
| 1778315619 | 14.44° C | 47% | 1022.8 hPa | - | - | - | - |
| 1778314719 | 13.33° C | 49% | 1022.8 hPa | - | - | - | - |
| 1778313818 | 13.33° C | 49% | 1022.8 hPa | - | - | - | - |
| 1778312917 | 12.22° C | 51% | 1022.9 hPa | - | - | - | - |
| 1778312016 | 11.11° C | 52% | 1022.9 hPa | - | - | - | - |
| 1778311115 | 11.11° C | 53% | 1023 hPa | - | - | - | - |
| 1778310214 | 10° C | 53% | 1022.9 hPa | - | - | - | - |
| 1778309314 | 9.44° C | 54% | 1022.9 hPa | - | - | - | - |
| 1778308413 | 9.44° C | 55% | 1023 hPa | - | - | - | - |
| 1778307512 | 8.89° C | 54% | 1022.9 hPa | - | - | - | - |
| 1778306611 | 8.89° C | 53% | 1022.9 hPa | - | - | - | - |
| 1778305710 | 8.89° C | 48% | 1022.8 hPa | - | - | - | - |
| 1778304809 | 7.78° C | 50% | 1023 hPa | - | - | - | - |
| 1778303908 | 7.78° C | 48% | 1022.9 hPa | - | - | - | - |
| 1778303007 | 9.44° C | 45% | 1022.8 hPa | - | - | - | - |
| 1778302107 | 7.78° C | 47% | 1022.8 hPa | - | - | - | - |
| 1778301206 | 9.44° C | 44% | 1022.7 hPa | - | - | - | - |
| 1778300305 | 7.78° C | 45% | 1022.6 hPa | - | - | - | - |
| 1778299404 | 7.22° C | 48% | 1022.6 hPa | - | - | - | - |
| 1778298503 | 7.78° C | 45% | 1022.5 hPa | - | - | - | - |
| 1778297603 | 7.22° C | 48% | 1022.5 hPa | - | - | - | - |
| 1778296702 | 8.33° C | 45% | 1022.6 hPa | - | - | - | - |
* Rain since midnight (hover to see other rain measurements)
** Current wind speed in m/s (hover to see current wind gust speed)